Time;durP1;ratioP1;P1;durP2;ratioP2;P2;SDS_P1;SDS_P2;PMS_P1;PMS_P2;Temp;Humidity;BMP_temperature;BMP_pressure;BME280_temperature;BME280_humidity;BME280_pressure;Samples;Min_cycle;Max_cycle;Signal;HPM_P1;HPM_P2
2023/10/21 00:00:24;;;;;;;40.67;23.05;;;9.90;99.90;;;;;;5092778;28;20044;-75
2023/10/21 00:02:53;;;;;;;41.88;23.52;;;10.00;99.90;;;;;;5091669;28;20116;-75
2023/10/21 00:05:19;;;;;;;47.28;24.13;;;9.90;99.90;;;;;;5091569;28;20051;-76
2023/10/21 00:07:45;;;;;;;44.78;22.73;;;10.00;99.90;;;;;;5074674;28;20445;-75
2023/10/21 00:10:13;;;;;;;47.67;24.85;;;9.90;99.90;;;;;;5091599;28;20040;-76
2023/10/21 00:12:39;;;;;;;45.45;22.80;;;10.00;99.90;;;;;;5092385;28;20036;-76
2023/10/21 00:15:06;;;;;;;48.03;22.70;;;10.10;99.90;;;;;;5092728;28;20042;-75
2023/10/21 00:17:33;;;;;;;44.35;22.67;;;10.10;99.90;;;;;;5090714;28;20036;-75
2023/10/21 00:20:03;;;;;;;51.38;25.35;;;10.10;99.90;;;;;;5083801;28;20481;-76
2023/10/21 00:22:29;;;;;;;48.47;25.17;;;10.10;99.90;;;;;;5091030;28;20032;-75
2023/10/21 00:24:55;;;;;;;47.22;23.50;;;10.10;99.90;;;;;;5082839;28;20062;-75
2023/10/21 00:27:20;;;;;;;49.83;23.98;;;10.10;99.90;;;;;;5092598;28;20562;-75
2023/10/21 00:29:46;;;;;;;49.60;24.77;;;10.10;99.90;;;;;;5092343;28;20043;-74
2023/10/21 00:32:12;;;;;;;46.75;23.60;;;10.20;99.90;;;;;;5090732;28;20408;-74
2023/10/21 00:34:40;;;;;;;45.75;24.75;;;10.20;99.90;;;;;;5092407;28;20040;-75
2023/10/21 00:37:07;;;;;;;47.80;24.58;;;10.40;99.90;;;;;;5090956;28;20384;-74
2023/10/21 00:39:34;;;;;;;48.75;24.90;;;10.40;99.90;;;;;;5091953;28;20105;-74
2023/10/21 00:42:04;;;;;;;49.70;26.90;;;10.50;99.90;;;;;;5092192;28;20427;-74
2023/10/21 00:44:30;;;;;;;46.97;24.80;;;10.30;99.90;;;;;;5092181;28;20035;-74
2023/10/21 00:46:59;;;;;;;46.65;24.80;;;10.40;99.90;;;;;;5092183;28;20047;-74
2023/10/21 00:49:28;;;;;;;52.47;24.20;;;10.30;99.90;;;;;;5092131;28;20042;-74
2023/10/21 00:51:55;;;;;;;49.17;24.13;;;10.30;99.90;;;;;;5091779;28;20035;-74
2023/10/21 00:54:22;;;;;;;48.30;24.42;;;10.30;99.90;;;;;;5092238;28;20090;-74
2023/10/21 00:56:48;;;;;;;47.85;25.13;;;10.30;99.90;;;;;;5092136;28;20044;-74
2023/10/21 00:59:14;;;;;;;46.20;24.52;;;10.10;99.90;;;;;;5090477;28;20043;-74
2023/10/21 01:01:40;;;;;;;47.25;25.00;;;10.10;99.90;;;;;;5085908;28;20063;-75
2023/10/21 01:04:06;;;;;;;44.50;22.58;;;10.10;99.90;;;;;;5088172;28;20609;-75
2023/10/21 01:06:32;;;;;;;40.17;21.98;;;10.10;99.90;;;;;;5090636;28;20032;-75
2023/10/21 01:08:59;;;;;;;43.08;22.17;;;10.10;99.90;;;;;;5092082;28;20082;-74
2023/10/21 01:11:24;;;;;;;38.50;22.48;;;10.00;99.90;;;;;;5091639;28;20107;-74
2023/10/21 01:13:51;;;;;;;40.75;21.73;;;9.90;99.90;;;;;;5091362;28;20475;-74
2023/10/21 01:16:17;;;;;;;40.17;22.42;;;10.00;99.90;;;;;;5090534;28;20580;-74
2023/10/21 01:18:42;;;;;;;43.58;21.65;;;10.00;99.90;;;;;;5091775;28;20124;-74
2023/10/21 01:21:09;;;;;;;50.38;24.45;;;9.90;99.90;;;;;;5095300;28;20111;-74
2023/10/21 01:23:34;;;;;;;40.70;21.77;;;10.00;99.90;;;;;;5096090;28;20162;-74
2023/10/21 01:26:01;;;;;;;41.25;22.63;;;9.90;99.90;;;;;;5095782;28;20469;-75
2023/10/21 01:28:28;;;;;;;39.55;22.17;;;9.80;99.90;;;;;;5095903;28;20036;-74
2023/10/21 01:30:54;;;;;;;39.58;20.65;;;9.90;99.90;;;;;;5094384;28;20048;-74
2023/10/21 01:33:20;;;;;;;41.38;23.08;;;9.90;99.90;;;;;;5095484;28;20054;-74
2023/10/21 01:35:46;;;;;;;40.47;21.25;;;9.80;99.90;;;;;;5087079;28;20106;-74
2023/10/21 01:38:12;;;;;;;38.47;22.95;;;9.80;99.90;;;;;;5095860;28;20054;-74
2023/10/21 01:40:38;;;;;;;44.63;22.05;;;9.80;99.90;;;;;;5095318;28;20044;-74
2023/10/21 01:43:03;;;;;;;38.25;21.55;;;9.80;99.90;;;;;;5094212;28;20036;-74
2023/10/21 01:45:29;;;;;;;39.95;21.02;;;9.70;99.90;;;;;;5094289;28;20068;-74
2023/10/21 01:47:55;;;;;;;43.25;22.60;;;9.80;99.90;;;;;;5095533;28;20036;-74
2023/10/21 01:50:20;;;;;;;42.85;21.42;;;9.70;99.90;;;;;;5095339;28;20503;-75
2023/10/21 01:52:46;;;;;;;42.58;21.13;;;9.80;99.90;;;;;;5077008;28;20542;-74
2023/10/21 01:55:12;;;;;;;41.10;22.60;;;9.80;99.90;;;;;;5094180;28;20040;-74
2023/10/21 01:57:38;;;;;;;41.67;21.65;;;9.70;99.90;;;;;;5094020;28;20104;-74
2023/10/21 02:00:08;;;;;;;43.63;20.27;;;9.80;99.90;;;;;;5094997;28;20491;-74
2023/10/21 02:02:35;;;;;;;37.33;22.02;;;9.80;99.90;;;;;;5095169;28;20051;-74
2023/10/21 02:05:01;;;;;;;39.00;22.50;;;9.70;99.90;;;;;;5095071;28;20565;-74
2023/10/21 02:07:27;;;;;;;40.90;21.75;;;9.70;99.90;;;;;;5095152;28;20040;-74
2023/10/21 02:09:52;;;;;;;45.00;22.83;;;9.80;99.90;;;;;;5095137;28;20046;-74
2023/10/21 02:12:18;;;;;;;41.67;21.50;;;9.70;99.90;;;;;;5094919;28;20028;-74
2023/10/21 02:14:43;;;;;;;42.15;21.67;;;9.70;99.90;;;;;;5095001;28;20515;-74
2023/10/21 02:17:09;;;;;;;36.20;20.85;;;9.60;99.90;;;;;;5093887;28;20040;-74
2023/10/21 02:19:35;;;;;;;41.20;21.17;;;9.70;99.90;;;;;;5094618;28;20043;-74
2023/10/21 02:22:00;;;;;;;39.60;21.42;;;9.70;99.90;;;;;;5094868;28;20659;-74
2023/10/21 02:24:26;;;;;;;39.60;21.40;;;9.60;99.90;;;;;;5094982;28;20028;-74
2023/10/21 02:26:51;;;;;;;39.63;19.73;;;9.60;99.90;;;;;;5094671;28;20028;-74
2023/10/21 02:29:17;;;;;;;38.35;20.05;;;9.70;99.90;;;;;;5093592;28;20066;-74
2023/10/21 02:31:43;;;;;;;39.80;21.30;;;9.70;99.90;;;;;;5119970;22;20032;-74
2023/10/21 02:34:09;;;;;;;39.13;19.90;;;9.60;99.90;;;;;;5116331;28;20048;-74
2023/10/21 02:36:34;;;;;;;39.13;21.42;;;9.70;99.90;;;;;;5118250;28;20044;-74
2023/10/21 02:39:00;;;;;;;36.00;19.83;;;9.60;99.90;;;;;;5118989;28;20039;-74
2023/10/21 02:41:26;;;;;;;38.10;20.77;;;9.60;99.90;;;;;;5119466;28;20483;-74
2023/10/21 02:43:52;;;;;;;39.88;21.20;;;9.70;99.90;;;;;;5119732;28;20046;-74
2023/10/21 02:46:18;;;;;;;38.30;21.63;;;9.60;99.90;;;;;;5118029;28;20032;-73
2023/10/21 02:48:44;;;;;;;40.67;20.88;;;9.70;99.90;;;;;;5118320;28;20032;-74
2023/10/21 02:51:15;;;;;;;39.90;20.98;;;9.70;99.90;;;;;;5118793;28;20048;-74
2023/10/21 02:53:42;;;;;;;42.78;22.10;;;9.60;99.90;;;;;;5118997;28;20663;-73
2023/10/21 02:56:09;;;;;;;37.80;20.85;;;9.70;99.90;;;;;;5119313;28;20057;-74
2023/10/21 02:58:35;;;;;;;39.95;20.42;;;9.70;99.90;;;;;;5100743;28;20487;-74
2023/10/21 03:01:04;;;;;;;37.53;20.48;;;9.70;99.90;;;;;;5117914;28;20032;-73
2023/10/21 03:03:30;;;;;;;39.33;20.67;;;9.60;99.90;;;;;;5119654;28;20054;-74
2023/10/21 03:05:56;;;;;;;47.45;23.02;;;9.70;99.90;;;;;;5117726;28;20122;-74
2023/10/21 03:08:21;;;;;;;43.70;21.60;;;9.70;99.90;;;;;;5118930;28;20040;-74
2023/10/21 03:10:48;;;;;;;42.67;22.65;;;9.70;99.90;;;;;;5101222;28;20039;-74
2023/10/21 03:13:13;;;;;;;44.55;22.60;;;9.80;99.90;;;;;;5100057;28;20043;-74
2023/10/21 03:15:39;;;;;;;44.70;23.08;;;9.80;99.90;;;;;;5118314;28;20040;-74
2023/10/21 03:18:04;;;;;;;46.63;22.27;;;9.70;99.90;;;;;;5101597;28;20040;-74
2023/10/21 03:20:33;;;;;;;48.33;23.10;;;9.90;99.90;;;;;;5100718;28;20084;-74
2023/10/21 03:22:59;;;;;;;46.97;22.83;;;9.70;99.90;;;;;;5118511;28;20108;-74
2023/10/21 03:25:25;;;;;;;48.15;23.58;;;9.90;99.90;;;;;;5100699;28;20071;-74
2023/10/21 03:27:51;;;;;;;46.50;23.08;;;9.80;99.90;;;;;;5117564;28;20069;-74
2023/10/21 03:30:17;;;;;;;44.10;22.52;;;9.80;99.90;;;;;;5100298;28;20050;-74
2023/10/21 03:32:43;;;;;;;43.08;22.08;;;9.80;99.90;;;;;;5119183;28;20040;-74
2023/10/21 03:35:09;;;;;;;49.97;22.58;;;9.80;99.90;;;;;;5119579;28;20077;-74
2023/10/21 03:37:35;;;;;;;52.30;24.15;;;9.80;99.90;;;;;;5118330;28;20118;-74
2023/10/21 03:40:05;;;;;;;46.80;23.88;;;9.90;99.90;;;;;;5118702;28;20122;-74
2023/10/21 03:42:31;;;;;;;53.90;24.98;;;9.90;99.90;;;;;;5116506;28;20043;-74
2023/10/21 03:44:56;;;;;;;42.50;22.02;;;9.80;99.90;;;;;;5116903;28;20392;-74
2023/10/21 03:47:22;;;;;;;40.75;20.98;;;9.80;99.90;;;;;;5118124;28;20441;-74
2023/10/21 03:49:48;;;;;;;42.95;21.40;;;9.90;99.90;;;;;;5117593;28;20047;-74
2023/10/21 03:52:13;;;;;;;43.30;21.88;;;9.90;99.90;;;;;;5117380;28;20507;-74
2023/10/21 03:54:39;;;;;;;38.97;21.30;;;9.80;99.90;;;;;;5117534;28;20046;-74
2023/10/21 03:57:04;;;;;;;46.50;23.23;;;9.90;99.90;;;;;;5099916;28;20118;-74
2023/10/21 03:59:30;;;;;;;38.20;20.85;;;9.80;99.90;;;;;;5117848;28;20118;-74
2023/10/21 04:01:57;;;;;;;41.72;22.55;;;9.90;99.90;;;;;;5116237;28;20040;-74
2023/10/21 04:04:23;;;;;;;43.40;20.95;;;10.00;99.90;;;;;;5100079;28;20039;-74
2023/10/21 04:06:49;;;;;;;44.22;22.75;;;9.80;99.90;;;;;;5099061;28;20028;-74
2023/10/21 04:09:14;;;;;;;41.35;20.77;;;9.80;99.90;;;;;;5114902;28;20032;-74
2023/10/21 04:11:41;;;;;;;41.05;20.48;;;9.90;99.90;;;;;;5116055;28;20055;-74
2023/10/21 04:14:07;;;;;;;41.33;21.63;;;9.80;99.90;;;;;;5116164;28;20032;-74
2023/10/21 04:16:32;;;;;;;42.40;22.13;;;9.90;99.90;;;;;;5116775;28;20395;-74
2023/10/21 04:18:58;;;;;;;38.25;19.48;;;9.80;99.90;;;;;;5117734;28;20031;-74
2023/10/21 04:21:25;;;;;;;38.47;19.83;;;9.90;99.90;;;;;;5115732;28;20045;-74
2023/10/21 04:23:51;;;;;;;32.78;18.70;;;9.90;99.90;;;;;;5116443;28;20050;-74
2023/10/21 04:26:16;;;;;;;36.45;18.48;;;9.90;99.90;;;;;;5098776;28;20071;-74
2023/10/21 04:28:42;;;;;;;35.33;19.48;;;9.90;99.90;;;;;;5116822;28;20027;-74
2023/10/21 04:31:07;;;;;;;37.33;18.75;;;9.90;99.90;;;;;;5117530;28;20040;-74
2023/10/21 04:33:33;;;;;;;34.97;19.20;;;9.90;99.90;;;;;;5115454;28;20075;-74
2023/10/21 04:35:59;;;;;;;32.58;17.67;;;10.00;99.90;;;;;;5117487;28;20039;-74
2023/10/21 04:38:24;;;;;;;33.58;18.25;;;9.80;99.90;;;;;;5116421;28;20051;-74
2023/10/21 04:40:50;;;;;;;29.88;18.17;;;9.90;99.90;;;;;;5114666;28;20047;-74
2023/10/21 04:43:16;;;;;;;31.92;17.05;;;9.90;99.90;;;;;;5115670;28;20040;-74
2023/10/21 04:45:41;;;;;;;33.47;17.88;;;9.90;99.90;;;;;;5115632;28;20040;-74
2023/10/21 04:48:07;;;;;;;35.88;17.00;;;9.90;99.90;;;;;;5117442;28;20059;-74
2023/10/21 04:50:33;;;;;;;29.77;16.10;;;9.90;99.90;;;;;;5115676;28;20035;-74
2023/10/21 04:52:59;;;;;;;29.50;15.98;;;10.00;99.90;;;;;;5099455;28;20039;-74
2023/10/21 04:55:25;;;;;;;29.23;16.65;;;9.90;99.90;;;;;;5116765;28;20046;-74
2023/10/21 04:57:51;;;;;;;29.35;15.70;;;10.00;99.90;;;;;;5116855;28;20035;-74
2023/10/21 05:00:17;;;;;;;30.23;18.10;;;10.00;99.90;;;;;;5115697;28;20094;-76
2023/10/21 05:02:42;;;;;;;29.63;16.15;;;10.00;99.90;;;;;;5115781;28;20047;-76
2023/10/21 05:05:09;;;;;;;29.98;15.93;;;9.90;99.90;;;;;;5098605;28;20036;-76
2023/10/21 05:07:34;;;;;;;31.58;16.27;;;10.00;99.90;;;;;;5115495;28;20043;-76
2023/10/21 05:10:00;;;;;;;30.83;15.70;;;10.00;99.90;;;;;;5098194;28;20048;-76
2023/10/21 05:12:26;;;;;;;29.13;16.20;;;10.10;99.90;;;;;;5114266;28;20114;-76
2023/10/21 05:14:52;;;;;;;24.98;15.88;;;10.00;99.90;;;;;;5116437;28;20074;-76
2023/10/21 05:17:17;;;;;;;22.88;14.45;;;9.90;99.90;;;;;;5114891;28;20046;-76
2023/10/21 05:19:43;;;;;;;21.80;14.13;;;9.90;99.90;;;;;;5113823;28;20435;-76
2023/10/21 05:22:08;;;;;;;29.48;15.88;;;10.00;99.90;;;;;;5114038;28;20127;-76
2023/10/21 05:24:34;;;;;;;27.42;15.57;;;9.90;99.90;;;;;;5115977;28;20071;-76
2023/10/21 05:27:00;;;;;;;27.88;15.82;;;9.90;99.90;;;;;;5115561;28;20071;-76
2023/10/21 05:29:26;;;;;;;31.65;16.42;;;9.90;99.90;;;;;;5114039;28;20042;-76
2023/10/21 05:31:53;;;;;;;29.45;14.85;;;9.80;99.90;;;;;;5097292;28;20071;-75
2023/10/21 05:34:19;;;;;;;25.35;14.50;;;9.90;99.90;;;;;;5097177;28;20379;-76
2023/10/21 05:36:45;;;;;;;29.05;15.98;;;9.80;99.90;;;;;;5113868;28;20061;-75
2023/10/21 05:39:12;;;;;;;26.35;15.70;;;9.90;99.90;;;;;;5115522;28;20132;-76
2023/10/21 05:41:39;;;;;;;24.60;14.85;;;10.00;99.90;;;;;;5113611;28;20035;-76
2023/10/21 05:44:04;;;;;;;26.23;13.85;;;9.90;99.90;;;;;;5115597;28;20047;-76
2023/10/21 05:46:30;;;;;;;27.67;15.30;;;9.90;99.90;;;;;;5114535;28;20062;-75
2023/10/21 05:48:55;;;;;;;23.27;14.23;;;9.90;99.90;;;;;;5113217;28;20039;-76
2023/10/21 05:51:21;;;;;;;25.15;14.27;;;10.00;99.90;;;;;;5116480;28;20110;-76
2023/10/21 05:53:47;;;;;;;25.23;14.23;;;10.00;99.90;;;;;;5115373;28;20036;-76
2023/10/21 05:56:12;;;;;;;23.20;14.10;;;10.00;99.90;;;;;;5116056;28;20032;-76
2023/10/21 05:58:40;;;;;;;21.45;13.50;;;10.00;99.90;;;;;;5099298;28;20494;-76
2023/10/21 06:01:11;;;;;;;25.80;14.52;;;10.00;99.90;;;;;;5098494;28;20062;-76
2023/10/21 06:03:39;;;;;;;23.30;14.07;;;10.10;99.90;;;;;;5116820;28;20502;-76
2023/10/21 06:06:05;;;;;;;22.52;13.20;;;10.00;99.90;;;;;;5116049;28;20104;-76
2023/10/21 06:08:31;;;;;;;26.15;14.20;;;10.10;99.90;;;;;;5118192;28;20035;-76
2023/10/21 06:10:57;;;;;;;27.83;13.88;;;10.20;99.90;;;;;;5119325;27;20051;-76
2023/10/21 06:13:24;;;;;;;27.52;13.65;;;10.00;99.90;;;;;;5118010;28;20036;-76
2023/10/21 06:15:51;;;;;;;27.08;14.10;;;10.20;99.90;;;;;;5100712;28;20054;-76
2023/10/21 06:18:17;;;;;;;26.67;13.85;;;10.10;99.90;;;;;;5117893;28;20196;-76
2023/10/21 06:20:48;;;;;;;22.80;13.30;;;10.10;99.90;;;;;;5117878;28;20498;-76
2023/10/21 06:23:15;;;;;;;26.60;13.73;;;10.20;99.90;;;;;;5117901;28;20040;-76
2023/10/21 06:25:40;;;;;;;24.92;14.23;;;10.20;99.90;;;;;;5119432;28;20043;-76
2023/10/21 06:28:07;;;;;;;22.45;13.13;;;10.20;99.90;;;;;;5119346;28;20035;-76
2023/10/21 06:30:35;;;;;;;22.67;12.88;;;10.30;99.90;;;;;;5118117;28;20050;-76
2023/10/21 06:33:02;;;;;;;23.77;13.10;;;10.20;99.90;;;;;;5118478;28;20061;-76
2023/10/21 06:35:28;;;;;;;23.00;13.20;;;10.30;99.90;;;;;;5109442;28;20042;-76
2023/10/21 06:37:54;;;;;;;27.50;14.48;;;10.20;99.90;;;;;;5099107;28;20067;-76
2023/10/21 06:40:20;;;;;;;23.80;14.32;;;10.30;99.90;;;;;;5080946;28;20086;-76
2023/10/21 06:42:46;;;;;;;25.65;14.98;;;10.20;99.90;;;;;;5097985;28;20051;-76
2023/10/21 06:45:11;;;;;;;21.88;12.57;;;10.30;99.90;;;;;;5097588;28;20119;-76
2023/10/21 06:47:37;;;;;;;24.63;14.68;;;10.50;99.90;;;;;;5097481;28;20395;-76
2023/10/21 06:50:04;;;;;;;24.38;13.35;;;10.30;99.90;;;;;;5081094;28;20035;-76
2023/10/21 06:52:31;;;;;;;24.25;13.82;;;10.40;99.90;;;;;;5098625;28;20032;-75
2023/10/21 06:54:57;;;;;;;26.00;13.57;;;10.40;99.90;;;;;;5098465;28;20095;-76
2023/10/21 06:57:23;;;;;;;26.00;13.80;;;10.50;99.90;;;;;;5082162;28;20036;-76
2023/10/21 06:59:52;;;;;;;21.80;12.98;;;10.60;99.90;;;;;;5082127;28;20040;-76
2023/10/21 07:02:18;;;;;;;23.20;13.60;;;10.60;99.90;;;;;;5100743;28;20036;-75
2023/10/21 07:04:43;;;;;;;24.25;13.75;;;10.50;99.90;;;;;;5081797;28;20054;-76
2023/10/21 07:07:10;;;;;;;21.98;12.95;;;10.60;99.90;;;;;;5083711;28;20058;-75
2023/10/21 07:09:37;;;;;;;23.45;13.60;;;10.60;99.90;;;;;;5100941;28;20040;-76
2023/10/21 07:12:03;;;;;;;26.20;13.88;;;10.50;99.90;;;;;;5100136;28;20040;-75
2023/10/21 07:14:29;;;;;;;20.80;13.27;;;10.60;99.90;;;;;;5100724;28;20040;-76
2023/10/21 07:16:55;;;;;;;20.95;13.88;;;10.70;99.90;;;;;;5098400;28;20105;-76
2023/10/21 07:19:21;;;;;;;21.05;12.95;;;10.70;99.90;;;;;;5098117;28;20040;-76
2023/10/21 07:21:48;;;;;;;23.52;13.48;;;10.70;99.90;;;;;;5079886;28;20039;-76
2023/10/21 07:24:14;;;;;;;21.35;13.23;;;10.70;99.90;;;;;;5080389;28;20561;-75
2023/10/21 07:26:40;;;;;;;23.52;13.93;;;10.80;99.90;;;;;;5097386;28;20495;-75
2023/10/21 07:29:07;;;;;;;28.00;14.57;;;10.80;99.90;;;;;;5097909;28;20111;-75
2023/10/21 07:31:34;;;;;;;22.42;13.90;;;10.80;99.90;;;;;;5096781;28;20040;-75
2023/10/21 07:34:00;;;;;;;24.58;15.05;;;10.80;99.90;;;;;;5096534;28;20036;-75
2023/10/21 07:36:26;;;;;;;23.08;13.60;;;10.90;99.90;;;;;;5098372;28;20671;-76
2023/10/21 07:38:52;;;;;;;20.92;12.40;;;11.10;99.90;;;;;;5096174;28;20070;-76
2023/10/21 07:41:19;;;;;;;23.80;13.20;;;11.00;99.90;;;;;;5096778;28;20043;-76
2023/10/21 07:43:44;;;;;;;23.40;12.63;;;11.00;99.90;;;;;;5096531;28;20096;-75
2023/10/21 07:46:10;;;;;;;22.30;12.35;;;11.10;99.90;;;;;;5112536;28;20143;-75
2023/10/21 07:48:36;;;;;;;22.33;12.30;;;11.20;99.90;;;;;;5113382;28;20027;-76
2023/10/21 07:51:02;;;;;;;31.23;12.65;;;11.20;99.90;;;;;;5113081;28;20464;-76
2023/10/21 07:53:27;;;;;;;20.88;12.32;;;11.30;99.90;;;;;;5113015;28;20075;-76
2023/10/21 07:55:53;;;;;;;25.08;13.05;;;11.30;99.90;;;;;;5112560;28;20047;-76
2023/10/21 07:58:19;;;;;;;22.60;13.55;;;11.40;99.90;;;;;;5112389;28;20036;-76
2023/10/21 08:00:44;;;;;;;26.67;12.70;;;11.30;99.90;;;;;;5112058;28;20093;-76
2023/10/21 08:03:10;;;;;;;21.73;12.25;;;11.30;99.90;;;;;;5095927;28;20051;-76
2023/10/21 08:05:36;;;;;;;25.00;12.63;;;11.40;99.90;;;;;;5114836;28;20035;-76
2023/10/21 08:08:03;;;;;;;25.13;13.05;;;11.50;99.90;;;;;;5114965;28;20492;-76
2023/10/21 08:10:29;;;;;;;27.75;13.88;;;11.50;99.90;;;;;;5113198;28;20054;-76
2023/10/21 08:12:55;;;;;;;23.65;14.15;;;11.60;99.90;;;;;;5112663;28;20047;-76
2023/10/21 08:15:20;;;;;;;24.33;13.65;;;11.60;99.90;;;;;;5112643;28;20045;-76
2023/10/21 08:17:46;;;;;;;25.92;13.52;;;11.70;99.90;;;;;;5114187;28;20043;-76
2023/10/21 08:20:12;;;;;;;22.65;13.82;;;11.70;99.90;;;;;;5095671;28;20544;-76
2023/10/21 08:22:37;;;;;;;20.65;12.68;;;11.70;99.90;;;;;;5113695;28;20035;-76
2023/10/21 08:25:03;;;;;;;27.08;14.30;;;11.80;99.90;;;;;;5112968;28;20040;-76
2023/10/21 08:27:28;;;;;;;20.35;12.45;;;12.00;99.90;;;;;;5114128;28;20032;-76
2023/10/21 08:29:54;;;;;;;23.20;13.32;;;12.10;99.90;;;;;;5116074;28;20047;-76
2023/10/21 08:32:20;;;;;;;24.20;14.02;;;12.00;99.90;;;;;;5132828;22;20309;-73
2023/10/21 08:34:46;;;;;;;23.70;13.60;;;12.20;99.90;;;;;;5092407;28;20052;-74
2023/10/21 08:37:12;;;;;;;25.50;13.73;;;12.30;99.90;;;;;;5072961;28;20082;-73
2023/10/21 08:39:37;;;;;;;31.48;15.85;;;12.30;99.90;;;;;;5091806;28;20447;-73
2023/10/21 08:42:03;;;;;;;21.75;13.18;;;12.40;99.90;;;;;;5091513;28;20043;-73
2023/10/21 08:44:30;;;;;;;26.65;13.77;;;12.50;99.90;;;;;;5085831;28;20107;-74
2023/10/21 08:46:58;;;;;;;24.73;14.00;;;12.60;99.90;;;;;;5092128;28;20502;-74
2023/10/21 08:49:24;;;;;;;27.58;14.10;;;12.60;99.90;;;;;;5090779;28;20040;-74
2023/10/21 08:51:53;;;;;;;25.20;14.68;;;12.70;99.90;;;;;;5090947;28;20534;-74
2023/10/21 08:54:19;;;;;;;25.48;13.98;;;12.70;99.90;;;;;;5092004;28;20040;-74
2023/10/21 08:56:45;;;;;;;25.67;13.93;;;12.90;99.90;;;;;;5092084;28;20071;-74
2023/10/21 08:59:12;;;;;;;25.75;14.88;;;13.10;99.90;;;;;;5092027;28;20032;-74
2023/10/21 09:01:38;;;;;;;31.35;14.52;;;13.00;99.90;;;;;;5091573;28;20047;-74
2023/10/21 09:04:05;;;;;;;25.08;15.50;;;13.10;99.90;;;;;;5091853;28;20561;-74
2023/10/21 09:06:30;;;;;;;24.52;14.15;;;13.30;99.90;;;;;;5090866;28;20039;-74
2023/10/21 09:08:56;;;;;;;25.02;14.13;;;13.50;99.90;;;;;;5073858;28;20123;-74
2023/10/21 09:11:26;;;;;;;27.48;14.68;;;13.50;99.90;;;;;;5091607;28;20048;-74
2023/10/21 09:13:58;;;;;;;23.17;13.60;;;13.70;99.90;;;;;;5091742;28;20040;-74
2023/10/21 09:16:31;;;;;;;26.48;14.13;;;13.80;99.90;;;;;;5090415;28;20075;-73
2023/10/21 09:19:03;;;;;;;24.88;13.55;;;14.00;99.90;;;;;;5090604;28;20040;-73
2023/10/21 09:21:33;;;;;;;27.50;14.02;;;14.20;99.90;;;;;;5090317;28;20047;-74
2023/10/21 09:24:04;;;;;;;25.55;14.13;;;14.20;99.90;;;;;;5090698;28;20446;-75
2023/10/21 09:26:41;;;;;;;24.50;13.80;;;14.50;99.90;;;;;;5090421;28;20040;-75
2023/10/21 09:29:18;;;;;;;23.38;12.68;;;14.40;99.90;;;;;;5090538;28;20135;-74
2023/10/21 09:31:56;;;;;;;30.88;13.38;;;14.50;99.90;;;;;;5073424;28;20052;-74
2023/10/21 09:34:26;;;;;;;26.70;12.88;;;14.60;99.90;;;;;;5090246;28;20220;-75
2023/10/21 09:36:56;;;;;;;25.40;13.85;;;14.70;99.90;;;;;;5090632;28;20036;-75
2023/10/21 09:39:24;;;;;;;28.90;14.82;;;14.70;99.90;;;;;;5090340;28;20060;-75
2023/10/21 09:41:50;;;;;;;25.98;15.50;;;14.80;99.90;;;;;;5076537;28;20036;-74
2023/10/21 09:44:17;;;;;;;23.60;13.50;;;14.70;99.90;;;;;;5094602;28;20039;-75
2023/10/21 09:46:44;;;;;;;30.73;15.68;;;14.60;99.90;;;;;;5077293;28;20043;-74
2023/10/21 09:49:14;;;;;;;23.80;13.35;;;14.80;99.90;;;;;;5094169;28;20036;-75
2023/10/21 09:52:05;;;;;;;22.00;14.63;;;14.70;99.90;;;;;;5094017;28;20048;-74
2023/10/21 09:54:50;;;;;;;19.42;10.75;;;14.60;99.90;;;;;;5094493;28;20430;-75
2023/10/21 09:57:16;;;;;;;21.10;12.45;;;14.60;99.90;;;;;;5077230;28;20126;-75
2023/10/21 09:59:44;;;;;;;16.17;10.27;;;14.70;99.90;;;;;;5075929;28;20060;-76
2023/10/21 10:02:11;;;;;;;14.75;10.25;;;14.70;99.90;;;;;;5075402;28;20036;-75
2023/10/21 10:04:38;;;;;;;18.35;10.32;;;14.70;99.90;;;;;;5077008;28;20605;-75
2023/10/21 10:07:07;;;;;;;18.80;9.98;;;14.70;99.90;;;;;;5095290;28;20036;-75
2023/10/21 10:09:39;;;;;;;13.35;9.30;;;14.70;99.90;;;;;;5086581;28;20442;-75
2023/10/21 10:12:25;;;;;;;13.93;8.13;;;14.70;99.90;;;;;;5073099;28;20029;-75
2023/10/21 10:14:53;;;;;;;14.45;7.68;;;14.60;99.90;;;;;;5087793;28;20032;-74
2023/10/21 10:17:51;;;;;;;12.57;8.32;;;14.60;99.90;;;;;;5093746;28;20040;-74
2023/10/21 10:20:27;;;;;;;10.57;6.75;;;14.60;99.90;;;;;;5094848;28;20032;-76
2023/10/21 10:23:03;;;;;;;9.70;6.88;;;14.80;99.90;;;;;;5094840;28;20044;-76
2023/10/21 10:25:33;;;;;;;17.52;6.53;;;14.80;99.90;;;;;;5094894;28;20111;-77
2023/10/21 10:28:04;;;;;;;8.07;5.68;;;14.90;99.90;;;;;;5094900;28;20040;-76
2023/10/21 10:30:34;;;;;;;7.90;4.13;;;14.90;99.90;;;;;;5094508;28;20036;-75
2023/10/21 10:33:08;;;;;;;9.30;4.45;;;14.80;99.90;;;;;;5093073;28;20040;-75
2023/10/21 10:35:47;;;;;;;7.97;3.25;;;14.90;99.90;;;;;;5094911;28;20032;-76
2023/10/21 10:38:24;;;;;;;4.97;3.03;;;14.90;99.90;;;;;;5094742;28;20043;-77
2023/10/21 10:41:01;;;;;;;4.75;2.50;;;14.90;99.90;;;;;;5094305;28;20040;-76
2023/10/21 10:43:28;;;;;;;6.63;2.90;;;15.00;99.90;;;;;;5094413;28;20040;-76
2023/10/21 10:45:53;;;;;;;5.65;2.78;;;15.00;99.90;;;;;;5093202;28;20036;-76
2023/10/21 10:48:20;;;;;;;4.03;3.15;;;14.90;99.90;;;;;;5090807;28;20040;-76
2023/10/21 10:50:46;;;;;;;4.57;2.20;;;15.10;99.90;;;;;;5084709;28;20047;-76
2023/10/21 10:53:13;;;;;;;4.90;1.80;;;15.00;99.90;;;;;;5072632;28;20044;-75
2023/10/21 10:55:45;;;;;;;3.17;1.60;;;14.80;99.90;;;;;;5074037;28;20036;-76
2023/10/21 10:58:11;;;;;;;4.75;1.48;;;14.80;99.90;;;;;;5073854;28;20036;-76
2023/10/21 11:00:39;;;;;;;4.60;1.52;;;14.90;99.90;;;;;;5072401;28;20072;-77
2023/10/21 11:03:06;;;;;;;1.63;1.10;;;14.80;99.90;;;;;;5072965;28;20048;-76
2023/10/21 11:05:32;;;;;;;2.70;1.05;;;14.80;99.90;;;;;;5072832;28;20037;-76
2023/10/21 11:07:58;;;;;;;2.78;1.73;;;14.80;99.90;;;;;;5073949;28;20041;-75
2023/10/21 11:10:25;;;;;;;1.77;1.10;;;14.80;99.90;;;;;;5072287;28;20072;-76
2023/10/21 11:12:52;;;;;;;3.15;1.52;;;14.80;99.90;;;;;;5072501;28;20501;-76
2023/10/21 11:15:19;;;;;;;2.33;1.30;;;14.70;99.90;;;;;;5072353;28;20044;-74
2023/10/21 11:17:47;;;;;;;3.28;1.17;;;14.60;99.90;;;;;;5077455;28;20120;-76
2023/10/21 11:20:13;;;;;;;4.93;1.15;;;14.60;99.90;;;;;;5076836;28;20411;-74
2023/10/21 11:22:39;;;;;;;2.00;0.88;;;14.50;99.90;;;;;;5071585;28;20044;-75
2023/10/21 11:25:05;;;;;;;1.60;0.90;;;14.50;99.90;;;;;;5073259;28;20487;-75
2023/10/21 11:27:32;;;;;;;3.03;1.13;;;14.50;99.90;;;;;;5073649;28;20447;-75
2023/10/21 11:29:59;;;;;;;5.38;1.15;;;14.40;99.90;;;;;;5072102;28;20044;-75
2023/10/21 11:32:30;;;;;;;2.92;0.95;;;14.40;99.90;;;;;;5073168;28;20055;-74
2023/10/21 11:35:01;;;;;;;1.63;1.10;;;14.50;99.90;;;;;;5071999;28;20047;-75
2023/10/21 11:37:27;;;;;;;4.00;1.15;;;14.50;99.90;;;;;;5073236;28;20044;-75
2023/10/21 11:39:52;;;;;;;1.90;1.13;;;14.60;99.90;;;;;;5071643;28;20048;-75
2023/10/21 11:42:18;;;;;;;1.52;0.80;;;14.70;99.90;;;;;;5071562;28;20123;-75
2023/10/21 11:44:58;;;;;;;1.63;0.98;;;14.60;99.90;;;;;;5071803;28;20041;-75
2023/10/21 11:47:28;;;;;;;2.15;0.93;;;14.70;99.90;;;;;;5073033;28;20048;-75
2023/10/21 11:49:55;;;;;;;2.42;0.95;;;14.60;99.90;;;;;;5071580;28;20040;-75
2023/10/21 11:52:22;;;;;;;2.53;0.82;;;14.80;99.90;;;;;;5072602;28;20416;-74
2023/10/21 11:55:22;;;;;;;5.03;1.00;;;14.80;99.90;;;;;;5072861;28;20162;-75
2023/10/21 11:58:44;;;;;;;1.50;0.70;;;14.80;99.90;;;;;;5072874;28;20047;-75
2023/10/21 12:11:51;;;;;;;2.20;0.60;;;14.70;99.90;;;;;;5072521;28;20045;-74
2023/10/21 12:14:57;;;;;;;1.90;0.80;;;14.60;99.90;;;;;;5105015;28;20080;-74
2023/10/21 12:19:52;;;;;;;1.48;0.60;;;14.30;99.90;;;;;;5071285;28;20053;-74
2023/10/21 12:29:17;;;;;;;1.38;0.63;;;14.30;99.90;;;;;;5050705;28;20123;-73
2023/10/21 12:43:35;;;;;;;1.65;0.60;;;14.60;99.90;;;;;;5090839;28;20542;-74
2023/10/21 12:46:17;;;;;;;1.10;0.50;;;14.80;99.90;;;;;;5090800;28;20040;-74
2023/10/21 12:48:51;;;;;;;1.30;0.52;;;15.00;99.90;;;;;;5089988;28;20051;-73
2023/10/21 12:51:24;;;;;;;1.25;0.50;;;15.20;99.90;;;;;;5080701;28;20040;-74
2023/10/21 12:53:50;;;;;;;0.90;0.50;;;15.30;99.90;;;;;;5071900;28;20044;-73
2023/10/21 12:56:16;;;;;;;1.65;0.40;;;15.40;99.90;;;;;;5072015;28;20039;-74
2023/10/21 12:58:42;;;;;;;4.60;0.63;;;15.40;99.90;;;;;;5070831;28;20044;-75
2023/10/21 13:01:14;;;;;;;2.63;0.60;;;15.50;99.90;;;;;;5072098;28;20048;-73
2023/10/21 13:03:41;;;;;;;0.83;0.47;;;15.40;99.90;;;;;;5071232;28;20028;-74
2023/10/21 13:06:08;;;;;;;0.98;0.40;;;15.40;99.90;;;;;;5071725;28;20279;-74